createdAt,value
2022-07-26T00:04:07.773Z,23.36
2022-07-26T00:14:07.758Z,23.02
2022-07-26T00:24:07.778Z,22.64
2022-07-26T00:34:07.719Z,22.37
2022-07-26T00:44:07.734Z,22.03
2022-07-26T00:54:07.734Z,21.97
2022-07-26T01:04:07.933Z,21.73
2022-07-26T01:14:08.033Z,21.44
2022-07-26T01:24:08.089Z,21.18
2022-07-26T01:34:07.896Z,20.76
2022-07-26T01:44:08.256Z,20.49
2022-07-26T01:54:08.037Z,20.41
2022-07-26T02:04:07.978Z,20.4
2022-07-26T02:14:07.930Z,20.3
2022-07-26T02:24:07.856Z,20.19
2022-07-26T02:34:07.787Z,19.78
2022-07-26T02:44:07.808Z,19.43
2022-07-26T02:54:07.772Z,19.12
2022-07-26T03:04:07.817Z,18.89
2022-07-26T03:14:07.861Z,18.69
2022-07-26T03:24:07.877Z,18.6
2022-07-26T03:34:07.819Z,18.57
2022-07-26T03:44:07.754Z,18.38
2022-07-26T03:54:07.784Z,18.33
2022-07-26T04:04:07.693Z,18.38
2022-07-26T04:14:07.790Z,18.39
2022-07-26T04:24:07.763Z,18.52
2022-07-26T04:34:07.785Z,18.39
2022-07-26T04:44:07.682Z,18.49
2022-07-26T04:54:07.684Z,18.65
2022-07-26T05:04:07.698Z,18.84
2022-07-26T05:14:07.681Z,18.93
2022-07-26T05:24:07.970Z,19.06
2022-07-26T05:34:07.574Z,19.89
2022-07-26T05:44:07.686Z,20.36
2022-07-26T05:54:07.661Z,21.04
2022-07-26T06:04:07.596Z,22.32
2022-07-26T06:14:07.371Z,22.87
2022-07-26T06:24:07.690Z,22.75
2022-07-26T06:34:07.567Z,23.21
2022-07-26T06:44:07.500Z,23.93
2022-07-26T06:54:07.459Z,23.49
2022-07-26T07:04:07.478Z,22.65
2022-07-26T07:14:07.580Z,22.3
2022-07-26T07:24:07.492Z,22.12
2022-07-26T07:34:07.497Z,22.08
2022-07-26T07:44:07.431Z,21.79
2022-07-26T07:54:07.228Z,21.67
2022-07-26T08:04:07.284Z,21.71
2022-07-26T08:14:07.197Z,21.58
2022-07-26T08:24:07.176Z,21.57
2022-07-26T08:34:07.180Z,21.76
2022-07-26T08:44:07.140Z,21.84
2022-07-26T08:54:07.139Z,22.08
2022-07-26T09:04:07.240Z,22.65
2022-07-26T09:14:07.104Z,22.87
2022-07-26T09:24:07.115Z,22.75
2022-07-26T09:34:07.696Z,23.04
2022-07-26T09:44:07.264Z,23.2
2022-07-26T09:54:07.186Z,23.42
2022-07-26T10:04:07.227Z,23.5
2022-07-26T10:14:07.160Z,23.69
2022-07-26T10:24:07.250Z,24.34
2022-07-26T10:34:07.195Z,25.14
2022-07-26T10:44:07.149Z,25.38
2022-07-26T10:54:07.213Z,26.84
2022-07-26T11:04:07.086Z,26.72
2022-07-26T11:14:07.280Z,27.29
2022-07-26T11:24:07.090Z,27.72
2022-07-26T11:34:07.046Z,28.08
2022-07-26T11:44:06.944Z,28.86
2022-07-26T11:54:06.998Z,28.62
2022-07-26T12:04:07.161Z,29.05
2022-07-26T12:14:07.030Z,29.65
2022-07-26T12:24:07.058Z,29.85
2022-07-26T12:34:06.868Z,30.3
2022-07-26T12:44:06.871Z,30.46
2022-07-26T12:54:07.017Z,30.45
2022-07-26T13:04:06.943Z,30.48
2022-07-26T13:14:06.845Z,30.76
2022-07-26T13:24:08.460Z,30
2022-07-26T13:34:06.918Z,30.26
2022-07-26T13:44:06.894Z,30.12
2022-07-26T13:54:06.829Z,29.59
2022-07-26T14:04:06.866Z,28.59
2022-07-26T14:14:06.737Z,28.32
2022-07-26T14:24:06.778Z,28.52
2022-07-26T14:34:06.742Z,28.66
2022-07-26T14:44:06.872Z,29.47
2022-07-26T14:54:06.713Z,30.44
2022-07-26T15:04:06.669Z,30.83
2022-07-26T15:14:06.725Z,30.01
2022-07-26T15:24:06.666Z,29.39
2022-07-26T15:34:06.652Z,29.33
2022-07-26T15:44:06.625Z,28.36
2022-07-26T15:54:06.605Z,27.94
2022-07-26T16:04:06.583Z,27.07
2022-07-26T16:14:06.756Z,26.21
2022-07-26T16:24:07.623Z,25.65
2022-07-26T16:34:06.561Z,24.9
2022-07-26T16:44:06.556Z,24.16
2022-07-26T16:54:06.570Z,23.58
2022-07-26T17:04:06.522Z,23.08
2022-07-26T17:14:06.547Z,22.58
2022-07-26T17:24:06.492Z,22.28
2022-07-26T17:34:06.497Z,22.17
2022-07-26T17:44:06.488Z,22.21
2022-07-26T17:54:06.472Z,22.25
2022-07-26T18:04:06.454Z,22.29
2022-07-26T18:14:06.448Z,22.27
2022-07-26T18:24:16.687Z,22.14
2022-07-26T18:34:06.931Z,21.98
2022-07-26T18:44:06.423Z,21.6
2022-07-26T18:54:06.384Z,21.12
2022-07-26T19:04:07.424Z,21.05
2022-07-26T19:14:06.369Z,21.02
2022-07-26T19:24:06.353Z,20.99
2022-07-26T19:34:06.365Z,20.92
2022-07-26T19:44:06.349Z,20.84
2022-07-26T19:54:06.341Z,20.75
2022-07-26T20:04:06.321Z,20.72
2022-07-26T20:14:06.321Z,20.66
2022-07-26T20:24:06.308Z,20.64
2022-07-26T20:34:06.294Z,20.58
2022-07-26T20:44:06.265Z,20.65
2022-07-26T20:54:06.283Z,20.42
2022-07-26T21:04:06.255Z,20.14
2022-07-26T21:14:06.234Z,20
2022-07-26T21:24:06.232Z,20.01
2022-07-26T21:34:06.257Z,20.08
2022-07-26T21:44:06.210Z,19.96
2022-07-26T21:54:06.171Z,20.07
2022-07-26T22:04:06.179Z,20.04
2022-07-26T22:14:06.215Z,19.94
2022-07-26T22:24:06.200Z,19.94
2022-07-26T22:34:06.132Z,19.96
2022-07-26T22:44:06.141Z,19.71
2022-07-26T22:54:06.142Z,19.53
2022-07-26T23:04:06.329Z,19.36
2022-07-26T23:14:06.118Z,19.2
2022-07-26T23:24:06.094Z,19.07
2022-07-26T23:34:06.098Z,18.98
2022-07-26T23:44:06.066Z,18.96
2022-07-26T23:54:06.084Z,19.02
